Time;durP1;ratioP1;P1;durP2;ratioP2;P2;SDS_P1;SDS_P2;PMS_P1;PMS_P2;Temp;Humidity;BMP_temperature;BMP_pressure;BME280_temperature;BME280_humidity;BME280_pressure;Samples;Min_cycle;Max_cycle;Signal;HPM_P1;HPM_P2
2023/03/28 00:00:46;;;;;;;4.70;1.80;;;6.00;91.50;;;;;;5040258;28;20453;-83
2023/03/28 00:03:17;;;;;;;5.33;2.10;;;6.00;91.60;;;;;;5042229;28;20460;-83
2023/03/28 00:05:47;;;;;;;3.00;1.73;;;6.00;91.70;;;;;;5041627;28;20481;-83
2023/03/28 00:08:15;;;;;;;5.30;1.70;;;6.00;91.70;;;;;;5038788;28;20523;-83
2023/03/28 00:10:42;;;;;;;12.40;2.60;;;6.10;91.80;;;;;;5035991;28;21059;-82
2023/03/28 00:13:12;;;;;;;5.40;1.57;;;6.10;91.70;;;;;;5038746;28;20948;-83
2023/03/28 00:15:41;;;;;;;6.97;1.90;;;6.10;91.70;;;;;;5041676;28;20990;-83
2023/03/28 00:18:12;;;;;;;5.70;2.70;;;6.10;91.80;;;;;;5041520;28;20465;-81
2023/03/28 00:20:41;;;;;;;4.83;1.70;;;6.00;91.80;;;;;;5042983;28;20465;-84
2023/03/28 00:23:10;;;;;;;5.33;2.30;;;6.00;91.90;;;;;;5041440;28;20472;-81
2023/03/28 00:25:42;;;;;;;3.13;1.50;;;5.90;92.00;;;;;;5043372;28;21172;-84
2023/03/28 00:28:09;;;;;;;5.57;1.67;;;5.90;92.10;;;;;;5036000;28;20457;-84
2023/03/28 00:30:36;;;;;;;5.13;1.93;;;5.90;92.10;;;;;;5035969;28;20553;-84
2023/03/28 00:33:04;;;;;;;4.87;2.13;;;5.90;92.20;;;;;;5040882;28;20488;-84
2023/03/28 00:35:32;;;;;;;5.10;1.60;;;5.90;92.30;;;;;;5038608;28;21037;-84
2023/03/28 00:37:58;;;;;;;2.63;1.33;;;5.90;92.40;;;;;;5040999;28;20455;-81
2023/03/28 00:40:25;;;;;;;4.90;2.23;;;5.80;92.50;;;;;;5037733;28;20493;-82
2023/03/28 00:42:53;;;;;;;4.90;1.67;;;5.80;92.50;;;;;;5038148;28;20487;-82
2023/03/28 00:45:23;;;;;;;3.57;1.50;;;5.80;92.60;;;;;;5044227;28;20488;-82
2023/03/28 00:48:05;;;;;;;3.50;1.50;;;5.80;92.70;;;;;;5055498;28;20439;-81
2023/03/28 00:50:47;;;;;;;3.00;1.70;;;5.70;92.80;;;;;;5056738;28;20444;-82
2023/03/28 00:53:25;;;;;;;6.67;1.67;;;5.80;92.90;;;;;;5063082;28;20429;-81
2023/03/28 00:56:00;;;;;;;6.77;2.30;;;5.70;92.90;;;;;;5058618;28;20433;-81
2023/03/28 00:58:32;;;;;;;3.97;1.80;;;5.60;93.00;;;;;;5054256;28;20488;-83
2023/03/28 01:00:59;;;;;;;2.53;2.10;;;5.60;93.10;;;;;;5038068;28;20473;-82
2023/03/28 01:03:32;;;;;;;4.33;2.40;;;5.60;93.20;;;;;;5039874;28;20453;-81
2023/03/28 01:06:03;;;;;;;7.10;3.03;;;5.60;93.20;;;;;;5040342;28;20488;-83
2023/03/28 01:08:33;;;;;;;4.97;2.10;;;5.60;93.30;;;;;;5038141;28;20461;-80
2023/03/28 01:11:00;;;;;;;4.47;2.70;;;5.60;93.30;;;;;;5046672;28;20555;-83
2023/03/28 01:13:31;;;;;;;3.67;2.57;;;5.60;93.40;;;;;;5032989;28;20467;-81
2023/03/28 01:15:58;;;;;;;7.57;1.87;;;5.50;93.50;;;;;;5040046;28;20461;-82
2023/03/28 01:18:25;;;;;;;4.00;2.27;;;5.50;93.60;;;;;;5037313;28;20458;-83
2023/03/28 01:21:07;;;;;;;9.93;2.40;;;5.50;93.70;;;;;;5038288;28;20468;-84
2023/03/28 01:24:05;;;;;;;3.07;1.80;;;5.40;93.90;;;;;;5039034;28;20464;-82
2023/03/28 01:26:53;;;;;;;4.60;2.20;;;5.40;94.00;;;;;;5042566;28;20488;-82
2023/03/28 01:29:35;;;;;;;5.23;2.17;;;5.40;94.10;;;;;;5035884;28;20465;-83
2023/03/28 01:32:26;;;;;;;10.30;2.67;;;5.40;94.50;;;;;;5037314;28;20481;-82
2023/03/28 01:35:14;;;;;;;4.17;1.97;;;5.40;94.20;;;;;;5035622;28;20548;-83
2023/03/28 01:38:05;;;;;;;3.80;2.00;;;5.50;94.20;;;;;;5039635;28;21241;-82
2023/03/28 01:41:00;;;;;;;8.10;2.87;;;5.40;94.20;;;;;;5038661;28;20507;-82
2023/03/28 01:43:40;;;;;;;5.20;2.07;;;5.30;94.10;;;;;;5036664;28;21012;-82
2023/03/28 01:46:19;;;;;;;6.03;2.37;;;5.30;94.30;;;;;;5036815;28;20541;-82
2023/03/28 01:49:08;;;;;;;3.37;1.80;;;5.30;94.50;;;;;;5042056;28;20484;-82
2023/03/28 01:51:57;;;;;;;5.40;1.87;;;5.30;94.60;;;;;;5050790;28;20993;-82
2023/03/28 01:54:38;;;;;;;4.67;2.10;;;5.30;94.70;;;;;;5045889;28;20967;-83
2023/03/28 01:57:14;;;;;;;5.13;1.97;;;5.30;94.70;;;;;;5042292;28;20575;-82
2023/03/28 01:59:51;;;;;;;3.60;2.43;;;5.20;94.70;;;;;;5039450;28;20463;-79
2023/03/28 02:02:23;;;;;;;3.67;1.97;;;5.20;94.70;;;;;;5037879;28;20476;-82
2023/03/28 02:04:52;;;;;;;2.60;2.00;;;5.20;94.80;;;;;;5039201;28;20457;-83
2023/03/28 02:07:21;;;;;;;4.70;2.40;;;5.20;94.90;;;;;;5038300;28;20476;-83
2023/03/28 02:09:48;;;;;;;2.20;2.00;;;5.10;95.00;;;;;;5046863;28;20430;-84
2023/03/28 02:12:23;;;;;;;6.50;2.60;;;5.10;95.10;;;;;;5056971;28;20472;-83
2023/03/28 02:14:54;;;;;;;3.77;2.43;;;5.10;95.20;;;;;;5043209;28;20449;-83
2023/03/28 02:17:23;;;;;;;4.00;1.60;;;5.10;95.40;;;;;;5047030;28;20479;-81
2023/03/28 02:19:57;;;;;;;4.70;2.00;;;5.10;95.40;;;;;;5036036;28;20455;-81
2023/03/28 02:22:33;;;;;;;2.27;2.03;;;5.10;95.40;;;;;;5046005;28;20476;-83
2023/03/28 02:25:00;;;;;;;8.67;2.90;;;5.00;95.40;;;;;;5036109;28;20487;-83
2023/03/28 02:27:27;;;;;;;4.87;1.87;;;5.00;95.50;;;;;;5032646;28;20840;-82
2023/03/28 02:29:54;;;;;;;7.40;2.37;;;5.00;95.50;;;;;;5035490;28;20453;-84
2023/03/28 02:32:21;;;;;;;4.73;2.20;;;5.10;95.60;;;;;;5034304;28;20494;-84
2023/03/28 02:34:50;;;;;;;4.83;3.00;;;5.00;95.60;;;;;;5030787;28;20452;-83
2023/03/28 02:37:30;;;;;;;4.13;2.03;;;5.00;95.60;;;;;;5040196;28;20465;-82
2023/03/28 02:40:15;;;;;;;3.77;1.93;;;5.00;95.70;;;;;;5042723;28;20461;-82
2023/03/28 02:42:53;;;;;;;8.97;2.20;;;5.00;95.80;;;;;;5039408;28;20487;-82
2023/03/28 02:45:35;;;;;;;4.23;2.13;;;5.00;95.70;;;;;;5039809;28;20464;-82
2023/03/28 02:48:41;;;;;;;6.83;2.33;;;5.10;95.80;;;;;;5035132;28;21005;-82
2023/03/28 02:51:33;;;;;;;13.37;3.23;;;5.00;95.60;;;;;;5032027;28;20999;-82
2023/03/28 02:54:03;;;;;;;3.57;2.00;;;5.00;95.70;;;;;;5038335;28;20452;-82
2023/03/28 02:56:36;;;;;;;8.03;2.33;;;5.00;95.70;;;;;;5045429;28;20850;-83
2023/03/28 02:59:10;;;;;;;5.63;2.10;;;5.00;95.80;;;;;;5039236;28;20453;-83
2023/03/28 03:01:39;;;;;;;4.73;2.20;;;5.00;96.00;;;;;;5039867;28;20481;-83
2023/03/28 03:04:06;;;;;;;6.73;2.60;;;4.90;95.90;;;;;;5040695;28;20457;-83
2023/03/28 03:06:35;;;;;;;6.27;2.20;;;4.90;96.00;;;;;;5040117;28;20587;-83
2023/03/28 03:09:03;;;;;;;4.27;1.60;;;5.00;96.10;;;;;;5041947;28;20454;-81
2023/03/28 03:11:31;;;;;;;4.80;1.87;;;5.10;96.10;;;;;;5046371;28;20555;-81
2023/03/28 03:13:59;;;;;;;5.03;1.63;;;5.10;95.90;;;;;;5064669;28;20449;-84
2023/03/28 03:16:27;;;;;;;4.60;1.87;;;5.00;95.80;;;;;;5059283;28;20465;-82
2023/03/28 03:18:56;;;;;;;2.97;1.77;;;4.90;95.70;;;;;;5061114;28;20529;-80
2023/03/28 03:21:24;;;;;;;9.20;1.90;;;4.90;95.90;;;;;;5057455;28;20475;-82
2023/03/28 03:23:51;;;;;;;4.83;2.00;;;4.80;96.00;;;;;;5048445;28;20464;-83
2023/03/28 03:26:18;;;;;;;4.97;2.17;;;4.90;96.00;;;;;;5044208;28;20543;-83
2023/03/28 03:28:44;;;;;;;3.57;2.13;;;4.90;96.00;;;;;;5041430;28;20448;-83
2023/03/28 03:31:11;;;;;;;6.00;1.70;;;5.10;95.80;;;;;;5039318;28;20500;-83
2023/03/28 03:33:38;;;;;;;4.37;2.03;;;5.10;95.50;;;;;;5044911;28;20449;-83
2023/03/28 03:36:05;;;;;;;4.20;2.70;;;5.00;95.40;;;;;;5040814;28;20468;-83
2023/03/28 03:38:32;;;;;;;9.67;2.30;;;5.00;95.50;;;;;;5039115;28;20967;-83
2023/03/28 03:40:59;;;;;;;5.60;2.00;;;4.90;95.60;;;;;;5041727;28;20530;-82
2023/03/28 03:43:26;;;;;;;4.23;2.27;;;4.80;95.60;;;;;;5039524;28;20457;-82
2023/03/28 03:45:54;;;;;;;4.33;1.90;;;4.80;95.80;;;;;;5034911;28;20457;-84
2023/03/28 03:48:21;;;;;;;4.40;1.67;;;4.80;96.00;;;;;;5041155;28;20874;-82
2023/03/28 03:50:50;;;;;;;7.83;1.90;;;4.80;96.00;;;;;;5040292;28;20460;-83
2023/03/28 03:53:16;;;;;;;4.53;2.17;;;4.80;96.00;;;;;;5044866;28;20463;-83
2023/03/28 03:55:43;;;;;;;4.87;2.20;;;4.70;96.00;;;;;;5040351;28;20468;-83
2023/03/28 03:58:10;;;;;;;7.87;2.03;;;4.70;96.10;;;;;;5040494;28;20454;-83
2023/03/28 04:00:40;;;;;;;5.20;3.00;;;4.70;96.20;;;;;;5043958;28;20457;-84
2023/03/28 04:03:07;;;;;;;3.70;2.47;;;4.70;96.20;;;;;;5038153;28;20465;-83
2023/03/28 04:05:34;;;;;;;5.57;2.43;;;4.70;96.10;;;;;;5035438;28;20515;-82
2023/03/28 04:08:00;;;;;;;4.20;2.30;;;4.70;96.10;;;;;;5036937;28;20489;-83
2023/03/28 04:10:27;;;;;;;5.20;2.40;;;4.60;96.20;;;;;;5033591;28;20487;-83
2023/03/28 04:12:55;;;;;;;7.97;3.00;;;4.60;96.20;;;;;;5040440;28;20481;-84
2023/03/28 04:15:21;;;;;;;9.70;3.10;;;4.70;96.40;;;;;;5043111;28;20456;-83
2023/03/28 04:17:49;;;;;;;5.00;2.10;;;4.60;96.40;;;;;;5051627;28;20457;-83
2023/03/28 04:20:16;;;;;;;8.13;3.60;;;4.70;96.40;;;;;;5051440;28;20469;-81
2023/03/28 04:22:44;;;;;;;6.57;2.77;;;4.60;96.40;;;;;;5051256;28;20484;-83
2023/03/28 04:25:12;;;;;;;5.67;2.60;;;4.60;96.40;;;;;;5052139;28;20464;-83
2023/03/28 04:27:40;;;;;;;3.33;2.50;;;4.60;96.40;;;;;;5047779;28;20477;-82
2023/03/28 04:30:08;;;;;;;5.60;2.60;;;4.60;96.40;;;;;;5044444;28;20831;-84
2023/03/28 04:32:36;;;;;;;8.60;3.03;;;4.60;96.50;;;;;;5035552;28;20500;-82
2023/03/28 04:35:03;;;;;;;9.20;3.27;;;4.60;96.50;;;;;;5040878;28;20529;-84
2023/03/28 04:37:30;;;;;;;6.50;2.90;;;4.60;96.50;;;;;;5037684;28;20460;-82
2023/03/28 04:39:57;;;;;;;4.50;2.70;;;4.60;96.50;;;;;;5038027;28;20496;-83
2023/03/28 04:42:23;;;;;;;4.50;2.87;;;4.60;96.60;;;;;;5046284;28;20555;-83
2023/03/28 04:44:50;;;;;;;3.63;2.33;;;4.60;96.60;;;;;;5043323;28;20453;-83
2023/03/28 04:47:17;;;;;;;4.63;2.40;;;4.60;96.70;;;;;;5046216;28;20499;-80
2023/03/28 04:49:44;;;;;;;9.90;2.70;;;4.90;96.30;;;;;;5037253;28;20465;-80
2023/03/28 04:52:10;;;;;;;7.00;2.70;;;5.10;95.80;;;;;;5050902;28;21216;-84
2023/03/28 04:54:37;;;;;;;6.67;3.30;;;5.20;95.30;;;;;;5040754;28;20456;-83
2023/03/28 04:57:04;;;;;;;5.30;2.67;;;5.20;94.90;;;;;;5039227;28;20480;-83
2023/03/28 04:59:30;;;;;;;7.93;2.87;;;5.00;94.60;;;;;;5039537;28;20452;-83
2023/03/28 05:01:57;;;;;;;3.60;2.53;;;4.80;94.90;;;;;;5042057;28;20476;-83
2023/03/28 05:04:25;;;;;;;4.43;3.00;;;4.70;95.20;;;;;;5043613;28;20437;-83
2023/03/28 05:06:52;;;;;;;4.40;2.83;;;4.80;95.60;;;;;;5039602;28;20837;-83
2023/03/28 05:09:19;;;;;;;7.67;3.27;;;4.90;95.30;;;;;;5039030;28;20466;-83
2023/03/28 05:11:49;;;;;;;4.37;2.60;;;4.80;95.20;;;;;;5061254;28;20468;-81
2023/03/28 05:14:16;;;;;;;3.90;2.93;;;5.00;95.00;;;;;;5041303;28;20440;-80
2023/03/28 05:16:42;;;;;;;6.90;3.03;;;4.90;94.90;;;;;;5061960;28;20455;-83
2023/03/28 05:19:09;;;;;;;6.87;3.00;;;4.80;95.10;;;;;;5065955;28;20443;-82
2023/03/28 05:21:36;;;;;;;4.57;2.50;;;4.70;95.20;;;;;;5065672;28;20470;-82
2023/03/28 05:24:07;;;;;;;8.03;3.23;;;4.60;95.60;;;;;;5065090;28;20444;-83
2023/03/28 05:26:35;;;;;;;4.60;2.90;;;4.60;95.70;;;;;;5058849;28;20437;-82
2023/03/28 05:29:02;;;;;;;8.33;2.90;;;4.50;95.80;;;;;;5055857;28;20442;-82
2023/03/28 05:31:29;;;;;;;4.93;2.27;;;4.40;95.90;;;;;;5038537;28;20812;-81
2023/03/28 05:33:56;;;;;;;7.83;2.70;;;4.40;96.30;;;;;;5040672;28;20459;-81
2023/03/28 05:36:23;;;;;;;5.17;3.30;;;4.50;96.30;;;;;;5043942;28;20495;-80
2023/03/28 05:38:49;;;;;;;6.63;3.00;;;4.60;96.30;;;;;;5047078;28;20457;-82
2023/03/28 05:41:16;;;;;;;8.60;3.03;;;4.50;96.20;;;;;;5043969;28;20472;-81
2023/03/28 05:43:43;;;;;;;5.83;3.27;;;4.50;96.20;;;;;;5054664;28;20436;-79
2023/03/28 05:46:09;;;;;;;5.77;2.70;;;4.40;96.40;;;;;;5062658;28;20437;-81
2023/03/28 05:48:36;;;;;;;3.53;3.03;;;4.60;96.40;;;;;;5065869;28;20464;-82
2023/03/28 05:51:03;;;;;;;8.00;3.67;;;4.60;96.30;;;;;;5069447;28;20498;-82
2023/03/28 05:53:30;;;;;;;7.43;3.10;;;4.70;96.40;;;;;;5062319;28;20532;-82
2023/03/28 05:55:56;;;;;;;8.13;2.67;;;4.80;96.40;;;;;;5059584;28;20440;-83
2023/03/28 05:58:23;;;;;;;7.03;3.27;;;4.70;96.30;;;;;;5056773;28;20437;-82
2023/03/28 06:00:50;;;;;;;4.07;2.77;;;4.80;96.30;;;;;;5056032;28;20457;-82
2023/03/28 06:03:16;;;;;;;9.00;3.73;;;4.70;96.10;;;;;;5055124;28;20448;-84
2023/03/28 06:05:43;;;;;;;7.47;3.50;;;4.90;95.90;;;;;;5053575;28;21180;-83
2023/03/28 06:08:10;;;;;;;9.20;2.97;;;4.90;95.70;;;;;;5043902;28;20572;-84
2023/03/28 06:10:37;;;;;;;7.83;3.87;;;5.10;96.20;;;;;;5046490;28;20447;-84
2023/03/28 06:13:04;;;;;;;6.17;3.50;;;5.70;96.20;;;;;;5040035;28;20476;-85
2023/03/28 06:15:31;;;;;;;6.63;2.80;;;6.10;94.90;;;;;;5037907;28;20446;-84
2023/03/28 06:17:58;;;;;;;10.53;5.70;;;6.50;94.40;;;;;;5030487;28;20464;-84
2023/03/28 06:20:25;;;;;;;7.40;4.37;;;7.90;93.80;;;;;;5041004;28;20465;-84
2023/03/28 06:22:52;;;;;;;8.90;4.90;;;10.00;91.30;;;;;;5040048;28;20500;-84
2023/03/28 06:25:18;;;;;;;10.43;4.13;;;12.00;83.10;;;;;;5035081;28;20515;-82
2023/03/28 06:27:45;;;;;;;9.93;4.30;;;13.20;75.80;;;;;;5031621;28;20868;-84
2023/03/28 06:30:12;;;;;;;6.20;3.80;;;14.10;69.00;;;;;;5036119;28;20444;-84
2023/03/28 06:32:39;;;;;;;8.17;3.03;;;15.00;64.80;;;;;;5041046;28;20465;-84
2023/03/28 06:35:07;;;;;;;9.43;4.03;;;16.00;60.10;;;;;;5045431;28;20512;-83
2023/03/28 06:37:33;;;;;;;7.07;3.63;;;16.40;57.70;;;;;;5035771;28;20457;-82
2023/03/28 06:40:00;;;;;;;5.97;3.20;;;17.30;55.80;;;;;;5041116;28;20449;-82
2023/03/28 06:42:27;;;;;;;7.03;3.20;;;16.80;54.40;;;;;;5036376;28;20567;-85
2023/03/28 06:44:54;;;;;;;9.43;4.10;;;17.10;54.40;;;;;;5037290;28;20883;-83
2023/03/28 06:47:20;;;;;;;8.67;3.97;;;17.40;54.00;;;;;;5056558;28;20473;-81
2023/03/28 06:49:47;;;;;;;5.40;3.00;;;17.60;53.00;;;;;;5062137;28;20448;-81
2023/03/28 06:52:15;;;;;;;6.33;3.27;;;17.90;52.60;;;;;;5050634;28;20461;-81
2023/03/28 06:54:42;;;;;;;6.57;3.80;;;18.00;51.10;;;;;;5050180;28;21046;-80
2023/03/28 06:57:08;;;;;;;9.83;4.70;;;16.90;50.90;;;;;;5052932;28;20487;-83
2023/03/28 06:59:35;;;;;;;6.80;3.43;;;14.70;52.50;;;;;;5048417;28;20648;-83
2023/03/28 07:02:02;;;;;;;8.60;3.60;;;14.20;55.00;;;;;;5043979;28;20479;-83
2023/03/28 07:04:29;;;;;;;5.30;3.07;;;14.00;55.40;;;;;;5042575;28;20479;-83
2023/03/28 07:06:55;;;;;;;4.83;3.33;;;15.00;55.00;;;;;;5047754;28;20457;-81
2023/03/28 07:09:22;;;;;;;10.33;3.70;;;15.50;54.40;;;;;;5039432;28;20445;-83
2023/03/28 07:11:49;;;;;;;7.97;4.00;;;16.60;52.40;;;;;;5104756;22;20933;-85
2023/03/28 07:14:15;;;;;;;7.10;3.87;;;15.50;50.60;;;;;;5059042;28;20534;-80
2023/03/28 07:16:42;;;;;;;4.80;3.80;;;13.00;53.00;;;;;;5056679;28;20444;-83
2023/03/28 07:19:09;;;;;;;6.03;3.70;;;10.80;57.50;;;;;;5052490;28;20451;-83
2023/03/28 07:21:36;;;;;;;5.00;3.53;;;9.40;63.50;;;;;;5054212;28;20476;-81
2023/03/28 07:24:03;;;;;;;8.27;3.80;;;9.20;69.90;;;;;;5052269;28;20945;-83
2023/03/28 07:26:30;;;;;;;10.93;3.93;;;10.70;69.60;;;;;;5063563;28;20441;-81
2023/03/28 07:28:56;;;;;;;8.03;3.83;;;13.00;64.90;;;;;;5078858;28;20459;-81
2023/03/28 07:31:24;;;;;;;7.50;3.70;;;15.00;57.90;;;;;;5063206;28;20510;-83
2023/03/28 07:33:51;;;;;;;4.23;3.00;;;16.20;54.70;;;;;;5055942;28;20449;-83
2023/03/28 07:36:19;;;;;;;5.60;4.00;;;17.00;52.70;;;;;;5054927;28;20452;-82
2023/03/28 07:38:47;;;;;;;12.03;3.40;;;17.60;51.60;;;;;;5054526;28;20915;-83
2023/03/28 07:41:15;;;;;;;6.20;3.27;;;18.50;49.00;;;;;;5051120;28;20476;-83
2023/03/28 07:43:42;;;;;;;10.83;3.40;;;18.60;48.60;;;;;;5049040;28;20460;-83
2023/03/28 07:46:13;;;;;;;6.40;3.80;;;18.50;48.40;;;;;;5053740;28;20456;-83
2023/03/28 07:48:40;;;;;;;4.80;2.90;;;18.70;47.00;;;;;;5053019;28;20540;-83
2023/03/28 07:51:08;;;;;;;6.13;3.33;;;18.50;47.40;;;;;;5052163;28;20563;-83
2023/03/28 07:53:36;;;;;;;5.77;3.37;;;19.10;46.70;;;;;;5053813;28;20444;-83
2023/03/28 07:56:03;;;;;;;7.87;3.87;;;18.20;46.70;;;;;;5053877;28;20467;-83
2023/03/28 07:58:30;;;;;;;8.27;3.20;;;17.90;47.90;;;;;;5058458;28;20582;-83
2023/03/28 08:01:03;;;;;;;5.90;3.43;;;17.60;48.30;;;;;;5059081;28;20456;-83
2023/03/28 08:03:40;;;;;;;4.73;3.10;;;17.20;48.00;;;;;;5070486;28;20516;-83
2023/03/28 08:06:25;;;;;;;10.93;3.70;;;17.70;48.60;;;;;;5069567;28;20468;-81
2023/03/28 08:08:57;;;;;;;5.93;3.87;;;17.90;47.70;;;;;;5071969;28;20473;-79
2023/03/28 08:11:25;;;;;;;5.50;2.93;;;18.20;47.50;;;;;;5067997;28;20556;-79
2023/03/28 08:13:52;;;;;;;5.73;2.90;;;18.20;46.70;;;;;;5073967;28;20436;-81
2023/03/28 08:16:19;;;;;;;8.23;2.90;;;18.30;46.50;;;;;;5075063;28;20429;-84
2023/03/28 08:18:46;;;;;;;4.13;2.40;;;18.90;46.10;;;;;;5074033;28;20428;-84
2023/03/28 08:21:20;;;;;;;3.47;2.60;;;19.30;45.70;;;;;;5074646;28;20469;-84
2023/03/28 08:23:46;;;;;;;8.93;3.10;;;19.20;45.10;;;;;;5071460;28;20474;-80
2023/03/28 08:26:13;;;;;;;5.40;2.53;;;19.30;45.00;;;;;;5073472;28;20444;-84
2023/03/28 08:28:40;;;;;;;5.13;3.00;;;19.80;44.30;;;;;;5073215;28;20457;-83
2023/03/28 08:31:13;;;;;;;3.53;2.40;;;20.20;43.80;;;;;;5067512;28;20528;-83
2023/03/28 08:33:41;;;;;;;9.90;3.40;;;20.50;42.00;;;;;;5072398;28;20476;-84
2023/03/28 08:36:13;;;;;;;5.40;2.70;;;19.00;42.30;;;;;;5069596;28;20502;-83
2023/03/28 08:38:45;;;;;;;5.57;2.80;;;17.50;43.60;;;;;;5064280;28;20459;-81
2023/03/28 08:41:48;;;;;;;5.43;3.00;;;15.60;46.50;;;;;;5067988;28;20468;-80
2023/03/28 08:44:46;;;;;;;7.60;3.03;;;13.80;49.10;;;;;;5065905;28;20521;-81
2023/03/28 08:47:42;;;;;;;8.40;2.30;;;12.20;52.40;;;;;;5056188;28;20448;-83
2023/03/28 08:50:17;;;;;;;3.50;1.83;;;11.80;53.80;;;;;;5042362;28;20473;-84
2023/03/28 08:52:45;;;;;;;2.77;1.90;;;11.20;55.00;;;;;;5052299;28;20472;-82
2023/03/28 08:55:21;;;;;;;7.77;2.40;;;10.80;55.90;;;;;;5055668;28;20486;-82
2023/03/28 08:57:51;;;;;;;8.60;2.83;;;10.50;57.70;;;;;;5053586;28;20459;-84
2023/03/28 09:00:26;;;;;;;6.90;2.87;;;10.30;59.60;;;;;;5045229;28;20457;-83
2023/03/28 09:02:54;;;;;;;5.43;2.03;;;10.20;60.10;;;;;;5054877;28;20468;-82
2023/03/28 09:06:02;;;;;;;4.43;1.90;;;10.10;57.70;;;;;;5057026;28;20467;-82
2023/03/28 09:08:50;;;;;;;3.93;2.10;;;10.20;56.30;;;;;;5072018;28;20488;-83
2023/03/28 09:11:53;;;;;;;3.07;1.30;;;10.00;56.30;;;;;;5072710;28;20597;-81
2023/03/28 09:15:00;;;;;;;6.37;3.73;;;10.50;56.90;;;;;;5073694;28;20568;-80
2023/03/28 09:17:59;;;;;;;3.60;1.70;;;10.50;55.50;;;;;;5071964;28;20482;-83
2023/03/28 09:20:25;;;;;;;5.80;1.83;;;10.30;56.50;;;;;;5066561;28;20452;-81
2023/03/28 09:22:56;;;;;;;1.70;1.40;;;10.10;56.70;;;;;;5077231;28;20520;-83
2023/03/28 09:25:47;;;;;;;1.53;0.90;;;10.60;55.80;;;;;;5073233;28;20549;-80
2023/03/28 09:28:35;;;;;;;2.77;1.63;;;10.60;54.10;;;;;;5066658;28;20494;-82
2023/03/28 09:31:05;;;;;;;3.10;1.23;;;10.40;54.80;;;;;;5069993;28;20487;-83
2023/03/28 09:33:35;;;;;;;6.90;1.23;;;10.10;54.30;;;;;;5070982;28;20429;-84
2023/03/28 09:36:09;;;;;;;2.40;1.20;;;10.20;53.80;;;;;;5071149;28;20460;-82
2023/03/28 09:38:42;;;;;;;2.60;1.20;;;10.50;53.30;;;;;;5063220;28;20475;-84
2023/03/28 09:41:18;;;;;;;3.37;1.03;;;10.60;52.70;;;;;;5058052;28;20472;-81
2023/03/28 09:43:51;;;;;;;3.00;1.47;;;10.60;53.60;;;;;;5057678;28;20486;-83
2023/03/28 09:46:30;;;;;;;3.13;1.10;;;10.60;54.30;;;;;;5056560;28;20463;-80
2023/03/28 09:48:57;;;;;;;3.87;1.30;;;10.60;53.10;;;;;;5053033;28;20488;-83
2023/03/28 09:51:24;;;;;;;1.57;1.47;;;11.10;52.80;;;;;;5048252;28;20563;-81
2023/03/28 09:53:51;;;;;;;3.60;1.50;;;11.60;53.10;;;;;;5049877;28;20462;-82
2023/03/28 09:56:32;;;;;;;6.27;1.27;;;11.80;53.20;;;;;;5052578;28;20466;-82
2023/03/28 09:59:02;;;;;;;2.77;1.37;;;12.00;52.20;;;;;;5049007;28;20455;-81
2023/03/28 10:01:42;;;;;;;2.73;1.00;;;11.50;51.90;;;;;;5049533;28;20491;-81
2023/03/28 10:04:11;;;;;;;4.40;1.40;;;11.90;51.20;;;;;;5050655;28;20456;-82
2023/03/28 10:06:39;;;;;;;2.50;1.00;;;12.50;50.30;;;;;;5064228;28;20498;-83
2023/03/28 10:09:12;;;;;;;8.63;1.30;;;13.00;49.00;;;;;;5057488;28;20561;-81
2023/03/28 10:11:58;;;;;;;2.23;1.00;;;13.40;47.90;;;;;;5048037;28;20484;-84
2023/03/28 10:14:39;;;;;;;4.23;1.30;;;13.30;46.10;;;;;;5051580;28;20788;-84
2023/03/28 10:17:31;;;;;;;2.67;1.20;;;13.40;46.40;;;;;;5053096;28;21015;-83
2023/03/28 10:20:06;;;;;;;2.23;0.90;;;13.60;46.10;;;;;;5047917;28;20575;-83
2023/03/28 10:22:36;;;;;;;4.80;1.50;;;13.50;44.10;;;;;;5050889;28;20460;-83
2023/03/28 10:25:14;;;;;;;3.77;1.43;;;13.10;44.60;;;;;;5050563;28;20441;-83
2023/03/28 10:27:41;;;;;;;3.23;1.17;;;13.10;45.40;;;;;;5047342;28;20451;-82
2023/03/28 10:30:26;;;;;;;2.40;1.20;;;12.70;45.60;;;;;;5052894;28;20983;-84
2023/03/28 10:33:22;;;;;;;3.87;1.10;;;12.70;46.50;;;;;;5049155;28;20804;-82
2023/03/28 10:35:59;;;;;;;2.93;1.13;;;12.90;46.20;;;;;;5047648;28;20487;-83
2023/03/28 10:38:36;;;;;;;1.13;1.00;;;13.10;45.90;;;;;;5050100;28;21229;-84
2023/03/28 10:41:11;;;;;;;2.03;1.13;;;13.00;46.00;;;;;;5053085;28;20483;-84
2023/03/28 10:43:39;;;;;;;2.90;1.40;;;12.90;45.50;;;;;;5050452;28;20488;-85
2023/03/28 10:46:09;;;;;;;1.97;1.00;;;12.80;45.80;;;;;;5048333;28;20461;-83
2023/03/28 10:48:38;;;;;;;2.10;1.10;;;13.00;45.90;;;;;;5050942;28;20515;-83
2023/03/28 10:51:13;;;;;;;1.60;1.10;;;13.20;45.80;;;;;;5051096;28;20480;-84
2023/03/28 10:53:54;;;;;;;1.63;0.87;;;13.20;44.60;;;;;;5049339;28;20870;-83
2023/03/28 10:56:28;;;;;;;2.20;0.90;;;13.30;44.60;;;;;;5046671;28;20440;-83
2023/03/28 10:59:04;;;;;;;1.27;0.80;;;13.10;45.20;;;;;;5052386;28;20440;-83
2023/03/28 11:01:38;;;;;;;2.60;1.20;;;13.50;43.90;;;;;;5066712;28;20475;-82
2023/03/28 11:04:37;;;;;;;2.47;0.90;;;13.30;43.60;;;;;;5046436;28;20495;-84
2023/03/28 11:07:26;;;;;;;1.00;0.77;;;13.10;44.30;;;;;;5048018;28;20456;-83
2023/03/28 11:10:05;;;;;;;2.00;0.90;;;12.70;43.50;;;;;;5053305;28;20472;-83
2023/03/28 11:12:46;;;;;;;1.37;1.10;;;12.30;44.40;;;;;;5063023;28;20480;-85
2023/03/28 11:15:28;;;;;;;1.63;1.20;;;12.50;44.30;;;;;;5053627;28;20452;-83
2023/03/28 11:18:34;;;;;;;3.03;1.00;;;12.70;44.30;;;;;;5064718;28;20530;-83
2023/03/28 11:21:36;;;;;;;2.17;1.07;;;12.70;44.60;;;;;;5055503;28;20460;-83
2023/03/28 11:24:33;;;;;;;2.70;1.00;;;13.10;43.90;;;;;;5053575;28;20443;-83
2023/03/28 11:27:42;;;;;;;1.10;1.00;;;12.80;43.30;;;;;;5050798;28;20439;-82
2023/03/28 11:30:19;;;;;;;3.13;1.20;;;12.60;43.50;;;;;;5049142;28;21013;-82
2023/03/28 11:32:59;;;;;;;1.73;1.10;;;12.40;43.80;;;;;;5049033;28;21332;-84
2023/03/28 11:35:55;;;;;;;3.80;0.70;;;12.00;43.80;;;;;;5053522;28;20571;-82
2023/03/28 11:38:46;;;;;;;3.10;1.20;;;12.10;44.50;;;;;;5024265;28;20529;-84
2023/03/28 11:41:31;;;;;;;1.50;1.07;;;12.20;44.80;;;;;;5065596;28;20533;-84
2023/03/28 11:44:11;;;;;;;2.10;1.20;;;12.30;44.40;;;;;;5055534;28;20460;-81
2023/03/28 11:47:15;;;;;;;1.50;1.03;;;12.10;44.50;;;;;;5053924;28;20518;-82
2023/03/28 11:54:35;;;;;;;2.23;1.27;;;11.30;45.50;;;;;;5035213;28;20480;-81
2023/03/28 11:57:31;;;;;;;6.70;1.47;;;11.10;46.20;;;;;;5062743;28;20463;-82
2023/03/28 12:00:15;;;;;;;1.40;0.93;;;11.20;46.20;;;;;;5051879;28;20453;-82
2023/03/28 12:03:26;;;;;;;1.07;0.90;;;11.50;46.20;;;;;;5053032;28;20942;-81
2023/03/28 12:06:09;;;;;;;2.37;1.17;;;12.00;45.40;;;;;;5060089;28;20453;-84
2023/03/28 12:08:46;;;;;;;2.30;1.27;;;12.40;44.80;;;;;;5061536;28;20503;-83
2023/03/28 12:11:35;;;;;;;1.80;1.20;;;12.90;44.30;;;;;;5056883;28;20479;-82
2023/03/28 12:14:10;;;;;;;3.90;1.00;;;13.60;43.00;;;;;;5057447;28;20458;-84
2023/03/28 12:16:54;;;;;;;4.33;1.23;;;13.70;42.20;;;;;;5054243;28;20459;-84
2023/03/28 12:19:39;;;;;;;3.57;1.37;;;13.70;42.10;;;;;;5053278;28;21161;-82
2023/03/28 12:22:25;;;;;;;1.90;1.60;;;13.90;42.20;;;;;;5054072;28;20479;-83
2023/03/28 12:25:12;;;;;;;1.90;1.80;;;14.00;42.40;;;;;;5055126;28;20814;-83
2023/03/28 12:27:41;;;;;;;1.20;1.10;;;14.10;42.50;;;;;;5055345;28;20452;-85
2023/03/28 12:30:19;;;;;;;2.93;1.30;;;13.80;42.60;;;;;;5056140;28;20479;-83
2023/03/28 12:32:52;;;;;;;2.77;1.60;;;13.80;42.40;;;;;;5072328;28;20510;-83
2023/03/28 12:35:24;;;;;;;4.00;1.73;;;13.70;42.60;;;;;;5054919;28;20468;-83
2023/03/28 12:38:17;;;;;;;2.97;1.40;;;13.90;43.40;;;;;;5056750;28;20449;-83
2023/03/28 12:41:04;;;;;;;1.80;1.10;;;14.30;43.70;;;;;;5055970;28;20512;-82
2023/03/28 12:43:46;;;;;;;3.20;1.20;;;14.80;41.90;;;;;;5058640;28;20460;-83
2023/03/28 12:46:20;;;;;;;2.00;1.43;;;14.80;41.60;;;;;;5054690;28;20507;-82
2023/03/28 12:49:02;;;;;;;1.57;1.43;;;14.70;41.70;;;;;;5058214;28;20471;-84
2023/03/28 12:51:48;;;;;;;2.97;1.63;;;14.60;42.10;;;;;;5057065;28;20500;-82
2023/03/28 12:54:34;;;;;;;2.10;1.30;;;14.40;42.30;;;;;;5056721;28;20903;-83
2023/03/28 13:01:23;;;;;;;;;;;;;;;;;;;;;
2023/03/28 13:04:41;;;;;;;2.10;1.73;;;13.30;43.60;;;;;;5076056;28;20444;-83
2023/03/28 13:07:18;;;;;;;3.50;1.90;;;13.10;43.40;;;;;;5005623;28;20432;-82
2023/03/28 13:10:01;;;;;;;2.80;1.57;;;12.60;43.80;;;;;;5047361;28;20562;-82
2023/03/28 13:12:53;;;;;;;3.27;1.40;;;12.60;44.20;;;;;;5048841;28;20486;-82
2023/03/28 13:16:03;;;;;;;1.50;1.40;;;12.70;44.50;;;;;;5049301;28;20460;-83
2023/03/28 13:18:33;;;;;;;2.97;1.47;;;12.80;44.10;;;;;;5051866;28;20479;-84
2023/03/28 13:21:06;;;;;;;4.00;1.33;;;12.90;44.50;;;;;;5052763;28;21021;-84
2023/03/28 13:23:45;;;;;;;1.30;1.20;;;13.10;43.80;;;;;;5051879;28;20543;-84
2023/03/28 13:26:22;;;;;;;2.03;1.50;;;12.80;42.70;;;;;;5053479;28;20440;-84
2023/03/28 13:28:57;;;;;;;1.40;1.00;;;12.70;43.50;;;;;;5050705;28;20468;-84
2023/03/28 13:31:28;;;;;;;4.57;1.30;;;12.70;43.80;;;;;;5051365;28;20457;-82
2023/03/28 13:34:01;;;;;;;1.43;1.07;;;12.50;43.00;;;;;;5052876;28;20442;-84
2023/03/28 13:36:32;;;;;;;1.97;1.53;;;12.40;43.10;;;;;;5035618;28;20479;-83